sensor_id;sensor_type;location;lat;lon;timestamp;P1;durP1;ratioP1;P2;durP2;ratioP2
60873;SDS011;46715;40.642;-7.920;2023-07-13T00:01:35;4.07;;;2.43;;
60873;SDS011;46715;40.642;-7.920;2023-07-13T00:03:35;4.85;;;1.88;;
60873;SDS011;46715;40.642;-7.920;2023-07-13T00:05:36;6.90;;;2.30;;
60873;SDS011;46715;40.642;-7.920;2023-07-13T00:07:37;6.37;;;2.43;;
60873;SDS011;46715;40.642;-7.920;2023-07-13T00:09:38;7.68;;;2.65;;
60873;SDS011;46715;40.642;-7.920;2023-07-13T00:11:39;4.53;;;2.20;;
60873;SDS011;46715;40.642;-7.920;2023-07-13T00:15:42;5.63;;;2.63;;
60873;SDS011;46715;40.642;-7.920;2023-07-13T00:17:43;7.03;;;2.70;;
60873;SDS011;46715;40.642;-7.920;2023-07-13T00:19:47;5.07;;;2.58;;
60873;SDS011;46715;40.642;-7.920;2023-07-13T00:21:48;11.97;;;3.00;;
60873;SDS011;46715;40.642;-7.920;2023-07-13T00:23:49;3.87;;;2.50;;
60873;SDS011;46715;40.642;-7.920;2023-07-13T00:25:49;10.03;;;2.70;;
60873;SDS011;46715;40.642;-7.920;2023-07-13T00:27:51;8.35;;;3.08;;
60873;SDS011;46715;40.642;-7.920;2023-07-13T00:29:52;10.97;;;3.20;;
60873;SDS011;46715;40.642;-7.920;2023-07-13T00:31:53;4.87;;;2.80;;
60873;SDS011;46715;40.642;-7.920;2023-07-13T00:33:55;3.40;;;2.55;;
60873;SDS011;46715;40.642;-7.920;2023-07-13T00:35:56;5.85;;;2.80;;
60873;SDS011;46715;40.642;-7.920;2023-07-13T00:37:57;7.45;;;2.80;;
60873;SDS011;46715;40.642;-7.920;2023-07-13T00:41:59;8.63;;;2.83;;
60873;SDS011;46715;40.642;-7.920;2023-07-13T00:48:12;6.07;;;2.58;;
60873;SDS011;46715;40.642;-7.920;2023-07-13T00:50:19;4.10;;;2.50;;
60873;SDS011;46715;40.642;-7.920;2023-07-13T00:52:22;6.50;;;2.70;;
60873;SDS011;46715;40.642;-7.920;2023-07-13T00:56:45;4.72;;;2.30;;
60873;SDS011;46715;40.642;-7.920;2023-07-13T00:58:49;7.47;;;2.28;;
60873;SDS011;46715;40.642;-7.920;2023-07-13T01:00:50;6.68;;;2.70;;
60873;SDS011;46715;40.642;-7.920;2023-07-13T01:02:51;6.93;;;2.65;;
60873;SDS011;46715;40.642;-7.920;2023-07-13T01:04:52;11.98;;;2.85;;
60873;SDS011;46715;40.642;-7.920;2023-07-13T01:06:53;5.80;;;2.60;;
60873;SDS011;46715;40.642;-7.920;2023-07-13T01:08:55;5.53;;;2.75;;
60873;SDS011;46715;40.642;-7.920;2023-07-13T01:10:59;4.07;;;2.25;;
60873;SDS011;46715;40.642;-7.920;2023-07-13T01:12:59;6.57;;;2.67;;
60873;SDS011;46715;40.642;-7.920;2023-07-13T01:15:00;6.67;;;2.33;;
60873;SDS011;46715;40.642;-7.920;2023-07-13T01:17:02;5.00;;;2.47;;
60873;SDS011;46715;40.642;-7.920;2023-07-13T01:19:10;9.20;;;2.85;;
60873;SDS011;46715;40.642;-7.920;2023-07-13T01:21:19;7.28;;;3.05;;
60873;SDS011;46715;40.642;-7.920;2023-07-13T01:23:20;5.55;;;2.58;;
60873;SDS011;46715;40.642;-7.920;2023-07-13T01:25:22;4.78;;;2.10;;
60873;SDS011;46715;40.642;-7.920;2023-07-13T01:27:24;5.40;;;2.70;;
60873;SDS011;46715;40.642;-7.920;2023-07-13T01:29:26;5.57;;;2.38;;
60873;SDS011;46715;40.642;-7.920;2023-07-13T01:31:26;6.77;;;2.80;;
60873;SDS011;46715;40.642;-7.920;2023-07-13T01:33:27;10.07;;;2.80;;
60873;SDS011;46715;40.642;-7.920;2023-07-13T01:35:28;10.13;;;3.13;;
60873;SDS011;46715;40.642;-7.920;2023-07-13T01:37:29;7.20;;;2.47;;
60873;SDS011;46715;40.642;-7.920;2023-07-13T01:39:33;4.70;;;2.50;;
60873;SDS011;46715;40.642;-7.920;2023-07-13T01:41:34;4.50;;;2.77;;
60873;SDS011;46715;40.642;-7.920;2023-07-13T01:43:35;7.30;;;2.93;;
60873;SDS011;46715;40.642;-7.920;2023-07-13T01:45:35;6.20;;;2.70;;
60873;SDS011;46715;40.642;-7.920;2023-07-13T01:47:36;6.40;;;3.08;;
60873;SDS011;46715;40.642;-7.920;2023-07-13T01:49:37;8.20;;;2.53;;
60873;SDS011;46715;40.642;-7.920;2023-07-13T01:51:41;6.18;;;3.13;;
60873;SDS011;46715;40.642;-7.920;2023-07-13T01:53:42;5.57;;;2.73;;
60873;SDS011;46715;40.642;-7.920;2023-07-13T01:55:43;6.13;;;3.00;;
60873;SDS011;46715;40.642;-7.920;2023-07-13T01:57:43;6.73;;;3.10;;
60873;SDS011;46715;40.642;-7.920;2023-07-13T01:59:44;5.80;;;2.70;;
60873;SDS011;46715;40.642;-7.920;2023-07-13T02:01:45;5.25;;;3.20;;
60873;SDS011;46715;40.642;-7.920;2023-07-13T02:03:46;4.93;;;2.50;;
60873;SDS011;46715;40.642;-7.920;2023-07-13T02:05:48;6.97;;;2.28;;
60873;SDS011;46715;40.642;-7.920;2023-07-13T02:07:49;6.80;;;2.40;;
60873;SDS011;46715;40.642;-7.920;2023-07-13T02:09:50;5.20;;;2.77;;
60873;SDS011;46715;40.642;-7.920;2023-07-13T02:11:51;4.60;;;2.67;;
60873;SDS011;46715;40.642;-7.920;2023-07-13T02:13:52;5.53;;;2.80;;
60873;SDS011;46715;40.642;-7.920;2023-07-13T02:15:53;8.80;;;2.77;;
60873;SDS011;46715;40.642;-7.920;2023-07-13T02:17:53;6.57;;;2.70;;
60873;SDS011;46715;40.642;-7.920;2023-07-13T02:19:54;5.73;;;3.23;;
60873;SDS011;46715;40.642;-7.920;2023-07-13T02:21:55;7.77;;;3.23;;
60873;SDS011;46715;40.642;-7.920;2023-07-13T02:23:56;6.47;;;2.73;;
60873;SDS011;46715;40.642;-7.920;2023-07-13T02:27:59;7.38;;;2.95;;
60873;SDS011;46715;40.642;-7.920;2023-07-13T02:30:00;5.20;;;2.80;;
60873;SDS011;46715;40.642;-7.920;2023-07-13T02:32:01;8.80;;;2.95;;
60873;SDS011;46715;40.642;-7.920;2023-07-13T02:34:02;8.20;;;2.83;;
60873;SDS011;46715;40.642;-7.920;2023-07-13T02:36:04;6.35;;;2.80;;
60873;SDS011;46715;40.642;-7.920;2023-07-13T02:38:08;9.07;;;2.90;;
60873;SDS011;46715;40.642;-7.920;2023-07-13T02:40:09;6.03;;;3.17;;
60873;SDS011;46715;40.642;-7.920;2023-07-13T02:42:10;5.75;;;3.20;;
60873;SDS011;46715;40.642;-7.920;2023-07-13T02:44:14;7.15;;;3.35;;
60873;SDS011;46715;40.642;-7.920;2023-07-13T02:46:15;7.00;;;2.90;;
60873;SDS011;46715;40.642;-7.920;2023-07-13T02:48:16;10.57;;;3.20;;
60873;SDS011;46715;40.642;-7.920;2023-07-13T02:50:17;8.10;;;3.20;;
60873;SDS011;46715;40.642;-7.920;2023-07-13T02:52:18;5.40;;;2.88;;
60873;SDS011;46715;40.642;-7.920;2023-07-13T02:54:19;7.67;;;3.30;;
60873;SDS011;46715;40.642;-7.920;2023-07-13T02:56:24;6.05;;;2.78;;
60873;SDS011;46715;40.642;-7.920;2023-07-13T02:58:26;7.80;;;3.45;;
60873;SDS011;46715;40.642;-7.920;2023-07-13T03:00:27;7.60;;;3.93;;
60873;SDS011;46715;40.642;-7.920;2023-07-13T03:02:28;8.38;;;3.65;;
60873;SDS011;46715;40.642;-7.920;2023-07-13T03:04:31;7.47;;;3.20;;
60873;SDS011;46715;40.642;-7.920;2023-07-13T03:06:32;12.73;;;3.90;;
60873;SDS011;46715;40.642;-7.920;2023-07-13T03:08:33;6.93;;;3.60;;
60873;SDS011;46715;40.642;-7.920;2023-07-13T03:10:34;10.27;;;3.63;;
60873;SDS011;46715;40.642;-7.920;2023-07-13T03:12:35;8.05;;;3.60;;
60873;SDS011;46715;40.642;-7.920;2023-07-13T03:14:39;7.57;;;4.13;;
60873;SDS011;46715;40.642;-7.920;2023-07-13T03:16:41;11.77;;;4.18;;
60873;SDS011;46715;40.642;-7.920;2023-07-13T03:18:42;7.67;;;3.43;;
60873;SDS011;46715;40.642;-7.920;2023-07-13T03:20:45;7.40;;;4.05;;
60873;SDS011;46715;40.642;-7.920;2023-07-13T03:22:46;10.40;;;3.38;;
60873;SDS011;46715;40.642;-7.920;2023-07-13T03:24:48;6.70;;;3.15;;
60873;SDS011;46715;40.642;-7.920;2023-07-13T03:26:49;11.00;;;3.50;;
60873;SDS011;46715;40.642;-7.920;2023-07-13T03:28:52;6.95;;;3.28;;
60873;SDS011;46715;40.642;-7.920;2023-07-13T03:31:39;5.53;;;3.10;;
60873;SDS011;46715;40.642;-7.920;2023-07-13T03:33:24;7.55;;;4.40;;
60873;SDS011;46715;40.642;-7.920;2023-07-13T03:35:25;9.33;;;3.73;;
60873;SDS011;46715;40.642;-7.920;2023-07-13T03:37:26;8.50;;;3.00;;
60873;SDS011;46715;40.642;-7.920;2023-07-13T03:39:27;8.87;;;3.23;;
60873;SDS011;46715;40.642;-7.920;2023-07-13T03:41:31;6.32;;;3.42;;
60873;SDS011;46715;40.642;-7.920;2023-07-13T03:43:32;7.13;;;2.97;;
60873;SDS011;46715;40.642;-7.920;2023-07-13T03:45:33;5.87;;;2.93;;
60873;SDS011;46715;40.642;-7.920;2023-07-13T03:47:34;9.53;;;3.70;;
60873;SDS011;46715;40.642;-7.920;2023-07-13T03:49:38;7.75;;;3.20;;
60873;SDS011;46715;40.642;-7.920;2023-07-13T03:51:38;6.83;;;2.77;;
60873;SDS011;46715;40.642;-7.920;2023-07-13T03:53:42;8.07;;;3.50;;
60873;SDS011;46715;40.642;-7.920;2023-07-13T03:55:46;7.97;;;3.40;;
60873;SDS011;46715;40.642;-7.920;2023-07-13T03:57:47;3.80;;;2.85;;
60873;SDS011;46715;40.642;-7.920;2023-07-13T03:59:48;5.60;;;3.30;;
60873;SDS011;46715;40.642;-7.920;2023-07-13T04:01:50;8.65;;;2.95;;
60873;SDS011;46715;40.642;-7.920;2023-07-13T04:03:51;4.63;;;2.77;;
60873;SDS011;46715;40.642;-7.920;2023-07-13T04:05:55;6.13;;;3.25;;
60873;SDS011;46715;40.642;-7.920;2023-07-13T04:08:00;6.10;;;3.03;;
60873;SDS011;46715;40.642;-7.920;2023-07-13T04:10:00;5.70;;;2.70;;
60873;SDS011;46715;40.642;-7.920;2023-07-13T04:12:01;5.93;;;3.07;;
60873;SDS011;46715;40.642;-7.920;2023-07-13T04:14:02;8.85;;;3.55;;
60873;SDS011;46715;40.642;-7.920;2023-07-13T04:16:03;5.50;;;2.73;;
60873;SDS011;46715;40.642;-7.920;2023-07-13T04:18:05;7.00;;;3.10;;
60873;SDS011;46715;40.642;-7.920;2023-07-13T04:20:06;4.20;;;2.83;;
60873;SDS011;46715;40.642;-7.920;2023-07-13T04:22:08;6.60;;;3.13;;
60873;SDS011;46715;40.642;-7.920;2023-07-13T04:24:08;8.17;;;3.50;;
60873;SDS011;46715;40.642;-7.920;2023-07-13T04:26:09;8.83;;;2.80;;
60873;SDS011;46715;40.642;-7.920;2023-07-13T04:28:10;4.17;;;2.97;;
60873;SDS011;46715;40.642;-7.920;2023-07-13T04:30:10;8.47;;;3.20;;
60873;SDS011;46715;40.642;-7.920;2023-07-13T04:32:11;11.20;;;3.70;;
60873;SDS011;46715;40.642;-7.920;2023-07-13T04:34:13;5.88;;;3.10;;
60873;SDS011;46715;40.642;-7.920;2023-07-13T04:36:14;3.60;;;3.00;;
60873;SDS011;46715;40.642;-7.920;2023-07-13T04:38:16;5.40;;;2.92;;
60873;SDS011;46715;40.642;-7.920;2023-07-13T04:40:17;7.18;;;3.10;;
60873;SDS011;46715;40.642;-7.920;2023-07-13T04:42:19;7.53;;;3.30;;
60873;SDS011;46715;40.642;-7.920;2023-07-13T04:44:19;4.77;;;3.50;;
60873;SDS011;46715;40.642;-7.920;2023-07-13T04:46:20;8.20;;;3.40;;
60873;SDS011;46715;40.642;-7.920;2023-07-13T04:48:21;7.10;;;3.63;;
60873;SDS011;46715;40.642;-7.920;2023-07-13T04:52:23;6.75;;;3.15;;
60873;SDS011;46715;40.642;-7.920;2023-07-13T04:54:28;4.80;;;3.50;;
60873;SDS011;46715;40.642;-7.920;2023-07-13T04:56:28;8.37;;;3.63;;
60873;SDS011;46715;40.642;-7.920;2023-07-13T05:00:31;7.78;;;3.55;;
60873;SDS011;46715;40.642;-7.920;2023-07-13T05:02:33;6.50;;;4.00;;
60873;SDS011;46715;40.642;-7.920;2023-07-13T05:04:35;6.85;;;3.70;;
60873;SDS011;46715;40.642;-7.920;2023-07-13T05:06:36;8.03;;;3.70;;
60873;SDS011;46715;40.642;-7.920;2023-07-13T05:08:36;8.30;;;3.50;;
60873;SDS011;46715;40.642;-7.920;2023-07-13T05:10:37;8.43;;;4.03;;
60873;SDS011;46715;40.642;-7.920;2023-07-13T05:12:38;5.35;;;3.45;;
60873;SDS011;46715;40.642;-7.920;2023-07-13T05:14:39;8.27;;;3.47;;
60873;SDS011;46715;40.642;-7.920;2023-07-13T05:16:40;7.33;;;3.77;;
60873;SDS011;46715;40.642;-7.920;2023-07-13T05:18:41;6.07;;;3.40;;
60873;SDS011;46715;40.642;-7.920;2023-07-13T05:20:41;9.50;;;3.93;;
60873;SDS011;46715;40.642;-7.920;2023-07-13T05:22:42;11.27;;;4.20;;
60873;SDS011;46715;40.642;-7.920;2023-07-13T05:24:43;8.20;;;4.47;;
60873;SDS011;46715;40.642;-7.920;2023-07-13T05:26:44;10.10;;;4.17;;
60873;SDS011;46715;40.642;-7.920;2023-07-13T05:28:45;9.87;;;4.10;;
60873;SDS011;46715;40.642;-7.920;2023-07-13T05:30:47;11.57;;;4.43;;
60873;SDS011;46715;40.642;-7.920;2023-07-13T05:32:48;6.45;;;4.28;;
60873;SDS011;46715;40.642;-7.920;2023-07-13T05:34:49;8.67;;;4.27;;
60873;SDS011;46715;40.642;-7.920;2023-07-13T05:36:50;7.77;;;4.30;;
60873;SDS011;46715;40.642;-7.920;2023-07-13T05:38:51;8.53;;;5.47;;
60873;SDS011;46715;40.642;-7.920;2023-07-13T05:40:53;12.23;;;6.43;;
60873;SDS011;46715;40.642;-7.920;2023-07-13T05:42:55;10.32;;;6.30;;
60873;SDS011;46715;40.642;-7.920;2023-07-13T05:44:56;14.30;;;7.10;;
60873;SDS011;46715;40.642;-7.920;2023-07-13T05:46:58;12.00;;;6.63;;
60873;SDS011;46715;40.642;-7.920;2023-07-13T05:48:59;11.03;;;7.23;;
60873;SDS011;46715;40.642;-7.920;2023-07-13T05:51:00;10.83;;;7.33;;
60873;SDS011;46715;40.642;-7.920;2023-07-13T05:53:02;14.55;;;7.03;;
60873;SDS011;46715;40.642;-7.920;2023-07-13T05:55:03;11.73;;;7.00;;
60873;SDS011;46715;40.642;-7.920;2023-07-13T05:57:04;11.23;;;6.68;;
60873;SDS011;46715;40.642;-7.920;2023-07-13T05:59:05;10.65;;;7.13;;
60873;SDS011;46715;40.642;-7.920;2023-07-13T06:01:08;10.87;;;7.63;;
60873;SDS011;46715;40.642;-7.920;2023-07-13T06:03:11;10.77;;;6.93;;
60873;SDS011;46715;40.642;-7.920;2023-07-13T06:05:12;10.77;;;6.37;;
60873;SDS011;46715;40.642;-7.920;2023-07-13T06:07:14;10.57;;;6.80;;
60873;SDS011;46715;40.642;-7.920;2023-07-13T06:09:15;17.55;;;7.60;;
60873;SDS011;46715;40.642;-7.920;2023-07-13T06:11:17;12.40;;;7.20;;
60873;SDS011;46715;40.642;-7.920;2023-07-13T06:13:22;15.73;;;7.65;;
60873;SDS011;46715;40.642;-7.920;2023-07-13T06:15:23;11.97;;;7.57;;
60873;SDS011;46715;40.642;-7.920;2023-07-13T06:17:24;12.60;;;7.10;;
60873;SDS011;46715;40.642;-7.920;2023-07-13T06:19:25;20.93;;;8.03;;
60873;SDS011;46715;40.642;-7.920;2023-07-13T06:21:25;9.63;;;7.37;;
60873;SDS011;46715;40.642;-7.920;2023-07-13T06:23:26;11.43;;;7.17;;
60873;SDS011;46715;40.642;-7.920;2023-07-13T06:25:27;11.97;;;6.90;;
60873;SDS011;46715;40.642;-7.920;2023-07-13T06:27:28;10.80;;;5.83;;
60873;SDS011;46715;40.642;-7.920;2023-07-13T06:29:28;10.27;;;5.67;;
60873;SDS011;46715;40.642;-7.920;2023-07-13T06:31:29;12.63;;;5.50;;
60873;SDS011;46715;40.642;-7.920;2023-07-13T06:33:30;12.87;;;4.70;;
60873;SDS011;46715;40.642;-7.920;2023-07-13T06:35:31;10.40;;;4.70;;
60873;SDS011;46715;40.642;-7.920;2023-07-13T06:37:32;10.48;;;4.40;;
60873;SDS011;46715;40.642;-7.920;2023-07-13T06:39:34;8.52;;;3.97;;
60873;SDS011;46715;40.642;-7.920;2023-07-13T06:41:35;14.70;;;5.93;;
60873;SDS011;46715;40.642;-7.920;2023-07-13T06:43:36;7.70;;;3.55;;
60873;SDS011;46715;40.642;-7.920;2023-07-13T06:45:42;10.20;;;4.33;;
60873;SDS011;46715;40.642;-7.920;2023-07-13T06:47:46;8.13;;;3.70;;
60873;SDS011;46715;40.642;-7.920;2023-07-13T06:49:47;12.83;;;3.63;;
60873;SDS011;46715;40.642;-7.920;2023-07-13T06:51:48;7.43;;;3.35;;
60873;SDS011;46715;40.642;-7.920;2023-07-13T06:53:49;5.83;;;2.77;;
60873;SDS011;46715;40.642;-7.920;2023-07-13T06:57:51;5.07;;;2.83;;
60873;SDS011;46715;40.642;-7.920;2023-07-13T06:59:52;7.68;;;3.03;;
60873;SDS011;46715;40.642;-7.920;2023-07-13T07:01:53;4.97;;;2.33;;
60873;SDS011;46715;40.642;-7.920;2023-07-13T07:03:54;6.32;;;2.92;;
60873;SDS011;46715;40.642;-7.920;2023-07-13T07:06:00;4.13;;;3.03;;
60873;SDS011;46715;40.642;-7.920;2023-07-13T07:08:01;5.13;;;2.78;;
60873;SDS011;46715;40.642;-7.920;2023-07-13T07:10:02;6.13;;;3.67;;
60873;SDS011;46715;40.642;-7.920;2023-07-13T07:12:03;5.80;;;3.35;;
60873;SDS011;46715;40.642;-7.920;2023-07-13T07:14:05;8.77;;;3.63;;
60873;SDS011;46715;40.642;-7.920;2023-07-13T07:16:06;6.93;;;3.03;;
60873;SDS011;46715;40.642;-7.920;2023-07-13T07:18:07;5.72;;;3.00;;
60873;SDS011;46715;40.642;-7.920;2023-07-13T07:20:08;5.38;;;2.53;;
60873;SDS011;46715;40.642;-7.920;2023-07-13T07:22:09;14.73;;;3.83;;
60873;SDS011;46715;40.642;-7.920;2023-07-13T07:24:10;6.45;;;3.30;;
60873;SDS011;46715;40.642;-7.920;2023-07-13T07:26:10;6.80;;;3.07;;
60873;SDS011;46715;40.642;-7.920;2023-07-13T07:28:14;7.85;;;3.20;;
60873;SDS011;46715;40.642;-7.920;2023-07-13T07:30:18;7.63;;;3.10;;
60873;SDS011;46715;40.642;-7.920;2023-07-13T07:32:19;8.27;;;3.10;;
60873;SDS011;46715;40.642;-7.920;2023-07-13T07:34:20;5.43;;;2.97;;
60873;SDS011;46715;40.642;-7.920;2023-07-13T07:36:21;8.73;;;3.00;;
60873;SDS011;46715;40.642;-7.920;2023-07-13T07:38:21;8.23;;;2.72;;
60873;SDS011;46715;40.642;-7.920;2023-07-13T07:40:22;10.23;;;3.17;;
60873;SDS011;46715;40.642;-7.920;2023-07-13T07:42:23;7.93;;;2.45;;
60873;SDS011;46715;40.642;-7.920;2023-07-13T07:44:24;6.38;;;2.53;;
60873;SDS011;46715;40.642;-7.920;2023-07-13T07:46:25;6.68;;;2.70;;
60873;SDS011;46715;40.642;-7.920;2023-07-13T07:48:26;9.20;;;2.80;;
60873;SDS011;46715;40.642;-7.920;2023-07-13T07:50:27;7.75;;;4.13;;
60873;SDS011;46715;40.642;-7.920;2023-07-13T07:52:28;5.05;;;2.58;;
60873;SDS011;46715;40.642;-7.920;2023-07-13T07:54:29;5.10;;;2.17;;
60873;SDS011;46715;40.642;-7.920;2023-07-13T07:58:32;7.85;;;1.98;;
60873;SDS011;46715;40.642;-7.920;2023-07-13T08:00:33;9.77;;;1.80;;
60873;SDS011;46715;40.642;-7.920;2023-07-13T08:02:35;6.88;;;2.45;;
60873;SDS011;46715;40.642;-7.920;2023-07-13T08:04:38;6.32;;;2.13;;
60873;SDS011;46715;40.642;-7.920;2023-07-13T08:06:39;8.25;;;2.17;;
60873;SDS011;46715;40.642;-7.920;2023-07-13T08:10:40;8.50;;;2.10;;
60873;SDS011;46715;40.642;-7.920;2023-07-13T08:12:45;4.85;;;2.25;;
60873;SDS011;46715;40.642;-7.920;2023-07-13T08:16:49;5.07;;;1.92;;
60873;SDS011;46715;40.642;-7.920;2023-07-13T08:18:50;6.90;;;1.80;;
60873;SDS011;46715;40.642;-7.920;2023-07-13T08:20:51;10.15;;;2.03;;
60873;SDS011;46715;40.642;-7.920;2023-07-13T08:22:51;6.38;;;1.60;;
60873;SDS011;46715;40.642;-7.920;2023-07-13T08:24:52;6.38;;;1.80;;
60873;SDS011;46715;40.642;-7.920;2023-07-13T08:26:56;5.95;;;2.00;;
60873;SDS011;46715;40.642;-7.920;2023-07-13T08:28:57;7.32;;;1.80;;
60873;SDS011;46715;40.642;-7.920;2023-07-13T08:31:02;10.15;;;2.30;;
60873;SDS011;46715;40.642;-7.920;2023-07-13T08:33:03;5.63;;;1.67;;
60873;SDS011;46715;40.642;-7.920;2023-07-13T08:35:05;3.58;;;1.40;;
60873;SDS011;46715;40.642;-7.920;2023-07-13T08:37:06;7.30;;;1.70;;
60873;SDS011;46715;40.642;-7.920;2023-07-13T08:39:07;4.75;;;1.55;;
60873;SDS011;46715;40.642;-7.920;2023-07-13T08:41:10;6.97;;;1.80;;
60873;SDS011;46715;40.642;-7.920;2023-07-13T08:43:16;5.70;;;2.55;;
60873;SDS011;46715;40.642;-7.920;2023-07-13T08:47:23;6.75;;;1.85;;
60873;SDS011;46715;40.642;-7.920;2023-07-13T08:49:25;4.32;;;1.73;;
60873;SDS011;46715;40.642;-7.920;2023-07-13T08:51:41;3.13;;;1.88;;
60873;SDS011;46715;40.642;-7.920;2023-07-13T08:53:49;5.22;;;1.25;;
60873;SDS011;46715;40.642;-7.920;2023-07-13T08:55:58;2.88;;;1.23;;
60873;SDS011;46715;40.642;-7.920;2023-07-13T08:58:04;5.63;;;1.40;;
60873;SDS011;46715;40.642;-7.920;2023-07-13T09:00:11;3.05;;;1.30;;
60873;SDS011;46715;40.642;-7.920;2023-07-13T09:04:41;3.20;;;1.30;;
60873;SDS011;46715;40.642;-7.920;2023-07-13T09:09:19;3.97;;;1.30;;
60873;SDS011;46715;40.642;-7.920;2023-07-13T09:11:40;31.05;;;2.45;;
60873;SDS011;46715;40.642;-7.920;2023-07-13T09:16:16;1.55;;;1.05;;
60873;SDS011;46715;40.642;-7.920;2023-07-13T09:20:35;5.60;;;1.20;;
60873;SDS011;46715;40.642;-7.920;2023-07-13T09:22:42;2.28;;;1.00;;
60873;SDS011;46715;40.642;-7.920;2023-07-13T09:24:54;3.83;;;1.38;;
60873;SDS011;46715;40.642;-7.920;2023-07-13T09:27:00;4.78;;;1.30;;
60873;SDS011;46715;40.642;-7.920;2023-07-13T09:29:09;4.38;;;1.23;;
60873;SDS011;46715;40.642;-7.920;2023-07-13T09:31:23;5.35;;;1.02;;
60873;SDS011;46715;40.642;-7.920;2023-07-13T09:33:30;7.70;;;1.25;;
60873;SDS011;46715;40.642;-7.920;2023-07-13T09:35:31;7.00;;;1.23;;
60873;SDS011;46715;40.642;-7.920;2023-07-13T09:37:33;3.65;;;0.70;;
60873;SDS011;46715;40.642;-7.920;2023-07-13T09:39:41;3.95;;;1.13;;
60873;SDS011;46715;40.642;-7.920;2023-07-13T09:41:47;3.15;;;1.33;;
60873;SDS011;46715;40.642;-7.920;2023-07-13T09:46:20;2.28;;;1.00;;
60873;SDS011;46715;40.642;-7.920;2023-07-13T09:48:22;4.00;;;1.30;;
60873;SDS011;46715;40.642;-7.920;2023-07-13T09:50:24;5.05;;;1.00;;
60873;SDS011;46715;40.642;-7.920;2023-07-13T09:52:25;6.43;;;1.00;;
60873;SDS011;46715;40.642;-7.920;2023-07-13T09:54:27;4.22;;;0.73;;
60873;SDS011;46715;40.642;-7.920;2023-07-13T09:56:29;1.95;;;0.90;;
60873;SDS011;46715;40.642;-7.920;2023-07-13T09:58:30;3.97;;;1.25;;
60873;SDS011;46715;40.642;-7.920;2023-07-13T10:00:32;3.78;;;1.20;;
60873;SDS011;46715;40.642;-7.920;2023-07-13T10:02:33;2.60;;;1.05;;
60873;SDS011;46715;40.642;-7.920;2023-07-13T10:04:35;3.75;;;1.10;;
60873;SDS011;46715;40.642;-7.920;2023-07-13T10:06:36;2.13;;;1.13;;
60873;SDS011;46715;40.642;-7.920;2023-07-13T10:08:39;17.85;;;1.45;;
60873;SDS011;46715;40.642;-7.920;2023-07-13T10:10:40;3.38;;;1.10;;
60873;SDS011;46715;40.642;-7.920;2023-07-13T10:12:41;4.13;;;1.30;;
60873;SDS011;46715;40.642;-7.920;2023-07-13T10:14:46;4.07;;;1.15;;
60873;SDS011;46715;40.642;-7.920;2023-07-13T10:16:48;4.68;;;0.98;;
60873;SDS011;46715;40.642;-7.920;2023-07-13T10:18:55;5.97;;;1.23;;
60873;SDS011;46715;40.642;-7.920;2023-07-13T10:21:08;2.30;;;1.33;;
60873;SDS011;46715;40.642;-7.920;2023-07-13T10:23:15;4.70;;;1.38;;
60873;SDS011;46715;40.642;-7.920;2023-07-13T10:25:25;1.83;;;0.90;;
60873;SDS011;46715;40.642;-7.920;2023-07-13T10:27:34;1.73;;;1.00;;
60873;SDS011;46715;40.642;-7.920;2023-07-13T10:29:37;1.48;;;0.68;;
60873;SDS011;46715;40.642;-7.920;2023-07-13T10:31:44;2.72;;;0.85;;
60873;SDS011;46715;40.642;-7.920;2023-07-13T10:33:45;2.17;;;1.00;;
60873;SDS011;46715;40.642;-7.920;2023-07-13T10:35:46;0.98;;;0.70;;
60873;SDS011;46715;40.642;-7.920;2023-07-13T10:39:58;5.60;;;1.00;;
60873;SDS011;46715;40.642;-7.920;2023-07-13T10:42:01;2.25;;;1.00;;
60873;SDS011;46715;40.642;-7.920;2023-07-13T10:44:09;1.52;;;0.65;;
60873;SDS011;46715;40.642;-7.920;2023-07-13T10:46:22;4.03;;;1.10;;
60873;SDS011;46715;40.642;-7.920;2023-07-13T10:48:27;2.78;;;1.17;;
60873;SDS011;46715;40.642;-7.920;2023-07-13T10:50:29;2.88;;;1.00;;
60873;SDS011;46715;40.642;-7.920;2023-07-13T10:52:47;2.05;;;0.90;;
60873;SDS011;46715;40.642;-7.920;2023-07-13T10:54:50;2.88;;;0.80;;
60873;SDS011;46715;40.642;-7.920;2023-07-13T10:56:53;2.10;;;1.00;;
60873;SDS011;46715;40.642;-7.920;2023-07-13T11:01:13;2.63;;;0.95;;
60873;SDS011;46715;40.642;-7.920;2023-07-13T11:03:16;1.25;;;0.73;;
60873;SDS011;46715;40.642;-7.920;2023-07-13T11:05:29;2.40;;;1.00;;
60873;SDS011;46715;40.642;-7.920;2023-07-13T11:07:32;1.83;;;0.80;;
60873;SDS011;46715;40.642;-7.920;2023-07-13T11:09:56;2.65;;;0.82;;
60873;SDS011;46715;40.642;-7.920;2023-07-13T11:11:59;1.25;;;0.90;;
60873;SDS011;46715;40.642;-7.920;2023-07-13T11:14:02;2.22;;;0.80;;
60873;SDS011;46715;40.642;-7.920;2023-07-13T11:16:32;3.05;;;0.95;;
60873;SDS011;46715;40.642;-7.920;2023-07-13T11:18:36;1.80;;;0.85;;
60873;SDS011;46715;40.642;-7.920;2023-07-13T11:20:38;1.33;;;0.82;;
60873;SDS011;46715;40.642;-7.920;2023-07-13T11:22:44;2.13;;;0.88;;
60873;SDS011;46715;40.642;-7.920;2023-07-13T11:25:01;2.72;;;0.90;;
60873;SDS011;46715;40.642;-7.920;2023-07-13T11:27:40;4.55;;;1.10;;
60873;SDS011;46715;40.642;-7.920;2023-07-13T11:29:43;1.17;;;0.80;;
60873;SDS011;46715;40.642;-7.920;2023-07-13T11:31:51;1.38;;;0.80;;
60873;SDS011;46715;40.642;-7.920;2023-07-13T11:33:54;2.88;;;0.95;;
60873;SDS011;46715;40.642;-7.920;2023-07-13T11:38:00;3.53;;;1.13;;
60873;SDS011;46715;40.642;-7.920;2023-07-13T11:40:02;2.20;;;1.05;;
60873;SDS011;46715;40.642;-7.920;2023-07-13T11:42:05;3.28;;;1.02;;
60873;SDS011;46715;40.642;-7.920;2023-07-13T11:44:13;1.80;;;1.13;;
60873;SDS011;46715;40.642;-7.920;2023-07-13T11:46:22;2.13;;;1.05;;
60873;SDS011;46715;40.642;-7.920;2023-07-13T11:48:28;2.70;;;0.98;;
60873;SDS011;46715;40.642;-7.920;2023-07-13T11:50:31;1.75;;;1.10;;
60873;SDS011;46715;40.642;-7.920;2023-07-13T11:52:33;2.08;;;0.98;;
60873;SDS011;46715;40.642;-7.920;2023-07-13T11:54:46;3.72;;;1.05;;
60873;SDS011;46715;40.642;-7.920;2023-07-13T11:56:56;1.70;;;0.88;;
60873;SDS011;46715;40.642;-7.920;2023-07-13T11:59:18;2.30;;;1.15;;
60873;SDS011;46715;40.642;-7.920;2023-07-13T12:01:24;1.38;;;0.90;;
60873;SDS011;46715;40.642;-7.920;2023-07-13T12:03:27;5.53;;;1.08;;
60873;SDS011;46715;40.642;-7.920;2023-07-13T12:05:29;2.63;;;1.08;;
60873;SDS011;46715;40.642;-7.920;2023-07-13T12:07:32;2.38;;;1.27;;
60873;SDS011;46715;40.642;-7.920;2023-07-13T12:09:34;1.83;;;1.13;;
60873;SDS011;46715;40.642;-7.920;2023-07-13T12:11:36;2.50;;;1.30;;
60873;SDS011;46715;40.642;-7.920;2023-07-13T12:13:38;2.45;;;1.20;;
60873;SDS011;46715;40.642;-7.920;2023-07-13T12:15:40;5.28;;;1.00;;
60873;SDS011;46715;40.642;-7.920;2023-07-13T12:17:46;1.30;;;0.80;;
60873;SDS011;46715;40.642;-7.920;2023-07-13T12:21:58;2.00;;;1.10;;
60873;SDS011;46715;40.642;-7.920;2023-07-13T12:24:00;1.40;;;0.95;;
60873;SDS011;46715;40.642;-7.920;2023-07-13T12:26:04;1.50;;;0.90;;
60873;SDS011;46715;40.642;-7.920;2023-07-13T12:31:04;1.40;;;0.80;;
60873;SDS011;46715;40.642;-7.920;2023-07-13T12:33:08;1.50;;;0.50;;
60873;SDS011;46715;40.642;-7.920;2023-07-13T12:35:14;1.73;;;0.80;;
60873;SDS011;46715;40.642;-7.920;2023-07-13T12:37:17;2.00;;;1.00;;
60873;SDS011;46715;40.642;-7.920;2023-07-13T12:41:18;2.85;;;1.17;;
60873;SDS011;46715;40.642;-7.920;2023-07-13T12:43:21;2.28;;;1.10;;
60873;SDS011;46715;40.642;-7.920;2023-07-13T12:45:24;2.80;;;0.93;;
60873;SDS011;46715;40.642;-7.920;2023-07-13T12:47:28;5.78;;;1.05;;
60873;SDS011;46715;40.642;-7.920;2023-07-13T12:49:29;2.05;;;0.98;;
60873;SDS011;46715;40.642;-7.920;2023-07-13T12:51:35;6.07;;;1.02;;
60873;SDS011;46715;40.642;-7.920;2023-07-13T12:53:42;1.23;;;0.70;;
60873;SDS011;46715;40.642;-7.920;2023-07-13T12:57:54;3.10;;;0.98;;
60873;SDS011;46715;40.642;-7.920;2023-07-13T12:59:56;2.67;;;0.95;;
60873;SDS011;46715;40.642;-7.920;2023-07-13T13:04:00;4.45;;;1.20;;
60873;SDS011;46715;40.642;-7.920;2023-07-13T13:08:18;1.33;;;0.70;;